Time;durP1;ratioP1;P1;durP2;ratioP2;P2;SDS_P1;SDS_P2;PMS_P1;PMS_P2;Temp;Humidity;BMP_temperature;BMP_pressure;BME280_temperature;BME280_humidity;BME280_pressure;Samples;Min_cycle;Max_cycle;Signal;HPM_P1;HPM_P2
2022/01/26 00:20:54;;;;;;;128.90;21.10;;;-0.40;99.90;;;-0.04;73.36;99024.31;5045931;28;20067;-40
2022/01/26 00:23:49;;;;;;;87.83;19.23;;;-0.40;99.90;;;-0.13;73.51;99026.44;5067267;28;20048;-40
2022/01/26 00:26:22;;;;;;;71.87;17.60;;;-0.50;99.90;;;-0.10;72.68;99026.31;5066020;28;20054;-40
2022/01/26 00:40:02;;;;;;;94.97;21.57;;;-0.40;99.90;;;-0.16;72.78;99027.41;5012642;28;20100;-40
2022/01/26 00:42:35;;;;;;;144.13;24.73;;;-0.50;99.90;;;-0.16;73.26;99027.41;5067346;28;20048;-40
2022/01/26 00:45:05;;;;;;;110.18;20.80;;;-0.50;99.90;;;-0.34;73.94;99023.75;5066783;28;20059;-40
2022/01/26 00:47:33;;;;;;;72.07;17.90;;;-0.70;99.90;;;-0.35;73.36;99029.03;5065234;28;20246;-40
2022/01/26 00:50:05;;;;;;;69.60;18.20;;;-0.70;99.90;;;-0.46;74.38;99034.69;5065835;28;20055;-40
2022/01/26 00:52:45;;;;;;;158.13;27.63;;;-0.80;99.90;;;-0.45;73.87;99037.22;5065677;28;20050;-40
2022/01/26 00:55:16;;;;;;;88.47;19.23;;;-0.80;99.90;;;-0.50;74.33;99031.34;5066243;28;20060;-40
2022/01/26 00:57:46;;;;;;;45.60;18.70;;;-0.80;99.90;;;-0.56;74.01;99028.06;5067106;28;20052;-40
2022/01/26 01:00:24;;;;;;;90.03;19.93;;;-0.90;99.90;;;-0.48;73.66;99023.44;5066487;28;20054;-40
2022/01/26 01:02:55;;;;;;;80.90;21.03;;;-0.80;99.90;;;-0.50;73.65;99023.47;5067325;28;20374;-40
2022/01/26 01:05:29;;;;;;;75.97;19.17;;;-0.80;99.90;;;-0.44;74.53;99023.25;5066439;28;20056;-40
2022/01/26 01:08:04;;;;;;;;;;;-0.70;99.90;;;-0.41;73.41;99022.25;5068204;28;20322;-40
2022/01/26 01:10:32;;;;;;;50.13;15.30;;;-0.70;99.90;;;-0.32;73.68;99021.06;5067182;28;19916;-40
2022/01/26 01:13:00;;;;;;;68.73;19.77;;;-0.60;99.90;;;-0.34;73.68;99020.28;5066899;28;20048;-40
2022/01/26 01:15:30;;;;;;;73.83;18.13;;;-0.60;99.90;;;-0.31;74.34;99017.53;5065581;28;20058;-40
2022/01/26 01:18:11;;;;;;;54.80;18.53;;;-0.60;99.90;;;-0.28;73.99;99023.50;5065554;28;20055;-40
2022/01/26 01:23:43;;;;;;;63.30;20.17;;;-0.60;99.90;;;-0.18;73.63;99025.75;5066905;28;20058;-40
2022/01/26 01:29:07;;;;;;;66.33;20.00;;;-0.50;99.90;;;-0.20;73.79;99031.91;5066933;28;20047;-40
2022/01/26 01:34:14;;;;;;;79.40;21.30;;;-0.40;99.90;;;-0.12;73.42;99023.75;5067144;28;20557;-40
2022/01/26 01:36:46;;;;;;;52.37;18.53;;;-0.40;99.90;;;-0.09;73.34;99028.03;5064762;28;20056;-40
2022/01/26 01:39:15;;;;;;;67.00;20.20;;;-0.40;99.90;;;-0.04;73.93;99023.44;5065792;28;20047;-40
2022/01/26 01:41:46;;;;;;;58.77;18.80;;;-0.30;99.90;;;-0.05;73.64;99029.59;5066373;28;20056;-40
2022/01/26 01:44:15;;;;;;;50.27;18.57;;;-0.30;99.90;;;-0.07;73.73;99029.66;5067278;28;20232;-40
2022/01/26 01:46:44;;;;;;;89.97;21.07;;;-0.40;99.90;;;-0.07;73.62;99036.66;5067320;28;20052;-40
2022/01/26 01:49:13;;;;;;;71.27;21.13;;;-0.40;99.90;;;-0.03;73.63;99035.63;5067312;28;20047;-40
2022/01/26 01:51:49;;;;;;;70.20;19.90;;;-0.40;99.90;;;-0.07;73.57;99029.66;5067031;28;20063;-40
2022/01/26 01:54:18;;;;;;;55.40;21.13;;;-0.30;99.90;;;-0.02;74.16;99030.34;5066659;28;20060;-40
2022/01/26 01:56:54;;;;;;;56.73;19.27;;;-0.30;99.90;;;-0.01;73.53;99032.03;5066612;28;20070;-40
2022/01/26 01:59:28;;;;;;;98.93;21.70;;;-0.30;99.90;;;-0.02;74.30;99034.69;5065756;28;20045;-40
2022/01/26 02:01:57;;;;;;;59.37;19.10;;;-0.30;99.90;;;-0.04;73.75;99023.44;5065513;28;20494;-40
2022/01/26 02:04:26;;;;;;;72.37;20.93;;;-0.30;99.90;;;-0.10;74.25;99032.38;5049103;28;20547;-40
2022/01/26 02:06:54;;;;;;;54.50;19.37;;;-0.40;99.90;;;-0.06;73.57;99031.38;5066157;28;20059;-40
2022/01/26 02:09:22;;;;;;;50.60;19.37;;;-0.40;99.90;;;0.02;74.08;99025.84;5065508;28;20343;-40
2022/01/26 02:11:57;;;;;;;56.47;19.17;;;-0.30;99.90;;;-0.02;74.27;99027.72;5066242;28;20041;-40
2022/01/26 02:14:30;;;;;;;72.27;20.53;;;-0.30;99.90;;;-0.02;74.03;99021.59;5066146;28;20051;-40
2022/01/26 02:20:12;;;;;;;61.23;22.57;;;-0.40;99.90;;;0.06;73.94;99026.53;5065236;28;20051;-40
2022/01/26 02:55:52;;;;;;;63.17;19.75;;;-0.10;99.90;;;0.22;73.59;99013.69;5088924;28;20056;-40
2022/01/26 02:58:53;;;;;;;60.67;19.83;;;-0.10;99.90;;;0.22;74.10;99011.09;5090878;28;20330;-40
2022/01/26 03:06:50;;;;;;;57.97;21.50;;;0.00;99.90;;;0.19;74.38;99007.69;5090677;28;20055;-40
2022/01/26 03:09:24;;;;;;;60.00;21.27;;;-0.10;99.90;;;0.23;73.92;99013.63;5088783;28;20078;-40
2022/01/26 03:11:53;;;;;;;53.40;19.73;;;-0.10;99.90;;;0.26;73.88;99015.28;5089110;28;20051;-40
2022/01/26 03:17:05;;;;;;;94.88;24.15;;;0.00;99.90;;;0.29;74.25;99009.91;5090543;28;20311;-40
2022/01/26 03:19:54;;;;;;;76.00;22.37;;;-0.10;99.90;;;0.24;74.24;99004.84;5089693;28;20527;-40
2022/01/26 03:30:47;;;;;;;79.37;21.43;;;-0.10;99.90;;;0.10;74.47;99008.03;5068448;28;20060;-40
2022/01/26 03:34:18;;;;;;;81.63;23.53;;;-0.20;99.90;;;0.11;74.42;99011.50;5067943;28;20354;-40
2022/01/26 03:36:13;;;;;;;83.80;22.17;;;-0.20;99.90;;;0.03;74.61;99014.44;5055311;28;20053;-40
2022/01/26 03:38:46;;;;;;;59.50;19.70;;;-0.30;99.90;;;-0.07;74.94;99015.72;5069536;28;20059;-40
2022/01/26 03:43:45;;;;;;;69.90;22.33;;;-0.40;99.90;;;-0.04;74.42;99021.69;5069032;28;20066;-40
2022/01/26 03:46:13;;;;;;;70.47;22.03;;;-0.40;99.90;;;-0.04;75.04;99018.19;5066843;28;20090;-40
2022/01/26 03:48:41;;;;;;;99.50;24.57;;;-0.40;99.90;;;0.04;75.14;99023.13;5068436;28;20052;-40
2022/01/26 03:51:08;;;;;;;84.20;22.47;;;-0.30;99.90;;;0.01;74.99;99021.50;5068052;28;20078;-40
2022/01/26 03:53:36;;;;;;;46.47;18.33;;;-0.30;99.90;;;-0.07;75.21;99020.97;5067157;28;20359;-40
2022/01/26 03:56:04;;;;;;;64.53;22.53;;;-0.30;99.90;;;0.04;75.22;99017.91;5068041;28;20063;-40
2022/01/26 03:58:32;;;;;;;63.60;20.67;;;-0.30;99.90;;;0.12;74.45;99011.44;5067149;28;20056;-40
2022/01/26 04:01:00;;;;;;;98.17;23.47;;;-0.10;99.90;;;0.20;74.73;99013.75;5068353;28;20238;-40
2022/01/26 04:03:28;;;;;;;67.37;18.40;;;-0.10;99.90;;;0.14;75.18;99011.41;5067097;28;20054;-40
2022/01/26 04:05:56;;;;;;;53.23;18.87;;;-0.10;99.90;;;0.18;74.99;99010.34;5068204;28;20044;-40
2022/01/26 04:08:28;;;;;;;76.57;20.97;;;-0.10;99.90;;;0.27;74.97;99017.84;5068474;28;20224;-40
2022/01/26 04:13:30;;;;;;;53.40;20.38;;;0.10;99.90;;;0.37;74.71;99032.25;5067893;28;20127;-40
2022/01/26 04:15:58;;;;;;;75.57;20.20;;;0.10;99.90;;;0.39;74.78;99026.97;5067697;28;20067;-40
2022/01/26 04:18:33;;;;;;;60.63;19.37;;;0.10;99.90;;;0.45;74.84;99020.63;5067701;28;20055;-40
2022/01/26 04:21:16;;;;;;;68.40;20.37;;;0.10;99.90;;;0.43;74.19;99017.19;5066227;28;20250;-40
2022/01/26 04:26:19;;;;;;;63.03;20.57;;;0.10;99.90;;;0.44;74.23;98998.78;5066866;28;20342;-40
2022/01/26 04:28:53;;;;;;;56.87;18.00;;;0.10;99.90;;;0.52;74.63;98995.84;5067917;28;20048;-40
2022/01/26 04:31:22;;;;;;;69.60;18.93;;;0.20;99.90;;;0.57;74.35;99005.22;5068049;28;20045;-40
2022/01/26 04:33:51;;;;;;;97.50;22.20;;;0.30;99.90;;;0.53;74.51;99002.78;5067277;28;20369;-40
2022/01/26 04:36:32;;;;;;;101.17;22.77;;;0.20;99.90;;;0.47;74.68;99008.28;5068031;28;20063;-40
2022/01/26 04:39:08;;;;;;;78.10;19.80;;;0.10;99.90;;;0.44;74.26;98998.78;5067741;28;20060;-40
2022/01/26 04:44:16;;;;;;;64.27;19.03;;;0.10;99.90;;;0.53;74.52;99000.16;5068147;28;20119;-40
2022/01/26 04:46:44;;;;;;;71.27;21.17;;;0.20;99.90;;;0.56;74.63;98990.41;5065827;28;20044;-40
2022/01/26 04:49:12;;;;;;;62.67;19.10;;;0.30;99.90;;;0.61;74.51;98989.38;5066796;28;20814;-40
2022/01/26 04:51:40;;;;;;;82.87;21.53;;;0.30;99.90;;;0.65;74.13;98988.31;5067867;28;20642;-40
2022/01/26 04:54:08;;;;;;;88.67;19.57;;;0.30;99.90;;;0.64;74.46;98994.44;5067203;28;20051;-40
2022/01/26 04:56:36;;;;;;;71.37;19.50;;;0.30;99.90;;;0.64;74.76;98984.84;5067488;28;20362;-40
2022/01/26 04:59:05;;;;;;;60.70;18.27;;;0.30;99.90;;;0.65;74.85;98983.06;5066760;28;20052;-40
2022/01/26 05:01:32;;;;;;;61.13;17.20;;;0.30;99.90;;;0.69;73.96;98989.88;5066322;28;20058;-40
2022/01/26 05:04:00;;;;;;;91.07;23.00;;;0.40;99.90;;;0.66;74.74;98990.00;5064466;28;20242;-40
2022/01/26 05:06:28;;;;;;;89.23;21.73;;;0.30;99.90;;;0.62;74.09;98999.78;5066532;28;20048;-40
2022/01/26 05:08:56;;;;;;;58.43;23.23;;;0.30;99.90;;;0.65;74.28;98993.56;5066643;28;20062;-40
2022/01/26 05:11:33;;;;;;;72.97;22.03;;;0.30;99.90;;;0.61;74.07;98998.06;5066370;28;20462;-40
2022/01/26 05:14:01;;;;;;;53.97;19.57;;;0.30;99.90;;;0.61;74.36;99016.41;5066387;28;20055;-40
2022/01/26 05:16:29;;;;;;;53.50;18.13;;;0.30;99.90;;;0.58;74.62;99001.69;5066712;28;20056;-40
2022/01/26 05:18:58;;;;;;;54.73;20.77;;;0.30;99.90;;;0.52;74.82;99006.31;5066335;28;20052;-40
2022/01/26 05:21:28;;;;;;;59.90;19.67;;;0.20;99.90;;;0.49;74.15;99007.31;5066092;28;20062;-40
2022/01/26 05:23:56;;;;;;;64.03;23.63;;;0.10;99.90;;;0.49;74.70;99007.31;5066205;28;20362;-40
2022/01/26 05:26:24;;;;;;;88.47;20.33;;;0.10;99.90;;;0.48;74.24;99000.34;5065640;28;20369;-40
2022/01/26 05:28:52;;;;;;;58.67;19.67;;;0.10;99.90;;;0.55;74.19;99000.97;5066897;28;20254;-40
2022/01/26 05:31:20;;;;;;;65.90;19.27;;;0.20;99.90;;;0.50;74.33;98992.44;5066002;28;20255;-40
2022/01/26 05:33:49;;;;;;;64.23;19.90;;;0.20;99.90;;;0.37;74.26;98997.34;5065362;28;20051;-40
2022/01/26 05:36:17;;;;;;;58.27;20.73;;;0.00;99.90;;;0.38;74.82;98999.88;5064477;28;20064;-40
2022/01/26 05:38:45;;;;;;;55.40;21.67;;;0.00;99.90;;;0.35;74.18;98997.41;5067626;28;20361;-40
2022/01/26 05:41:13;;;;;;;49.60;20.07;;;0.00;99.90;;;0.33;74.53;98995.75;5064364;28;20052;-40
2022/01/26 05:43:41;;;;;;;58.27;22.27;;;0.00;99.90;;;0.36;74.48;98996.47;5065833;28;20048;-40
2022/01/26 05:46:19;;;;;;;59.97;17.53;;;0.00;99.90;;;0.28;74.55;99005.59;5065817;28;20059;-40
2022/01/26 05:48:49;;;;;;;64.77;21.37;;;0.00;99.90;;;0.27;74.40;99002.13;5066544;28;20064;-40
2022/01/26 05:51:17;;;;;;;57.67;21.00;;;0.00;99.90;;;0.21;75.17;99004.97;5065424;28;20339;-40
2022/01/26 05:53:45;;;;;;;56.27;19.13;;;-0.10;99.90;;;0.26;74.52;99004.78;5065826;28;20040;-40
2022/01/26 05:56:13;;;;;;;46.63;20.87;;;0.00;99.90;;;0.28;74.91;98998.56;5066271;28;20282;-40
2022/01/26 05:58:41;;;;;;;56.30;20.47;;;-0.10;99.90;;;0.21;74.98;99007.59;5066122;28;20047;-40
2022/01/26 06:01:14;;;;;;;53.20;20.60;;;-0.10;99.90;;;0.25;75.00;99000.47;5065963;28;20049;-40
2022/01/26 06:03:42;;;;;;;53.70;20.90;;;-0.10;99.90;;;0.17;74.65;98995.53;5066272;28;20246;-40
2022/01/26 06:06:10;;;;;;;58.57;21.30;;;-0.10;99.90;;;0.19;75.48;98991.97;5065136;28;20765;-40
2022/01/26 06:08:38;;;;;;;52.53;20.20;;;-0.10;99.90;;;0.16;74.74;98991.22;5067734;28;20040;-40
2022/01/26 06:11:06;;;;;;;50.53;20.83;;;-0.10;99.90;;;0.17;75.14;98992.91;5066754;28;20560;-40
2022/01/26 06:13:33;;;;;;;54.50;20.27;;;-0.10;99.90;;;0.23;74.53;98979.56;5064746;28;20048;-40
2022/01/26 06:16:01;;;;;;;54.30;21.70;;;-0.10;99.90;;;0.27;75.21;98983.78;5067910;28;20051;-40
2022/01/26 06:18:29;;;;;;;50.70;20.93;;;0.00;99.90;;;0.32;75.30;98971.31;5070886;28;20045;-39
2022/01/26 06:20:57;;;;;;;88.47;23.90;;;0.10;99.90;;;0.28;75.05;98980.22;5068588;28;20262;-40
2022/01/26 06:23:25;;;;;;;50.97;21.23;;;-0.10;99.90;;;0.18;75.01;98977.16;5070951;28;20056;-40
2022/01/26 06:25:55;;;;;;;51.40;22.40;;;-0.10;99.90;;;0.23;74.81;98981.34;5068364;28;20204;-40
2022/01/26 06:28:26;;;;;;;57.77;18.97;;;-0.10;99.90;;;0.22;75.44;98977.03;5070666;28;20046;-40
2022/01/26 06:30:59;;;;;;;62.63;20.73;;;-0.10;99.90;;;0.21;75.19;98984.00;5069166;28;20063;-40
2022/01/26 06:33:28;;;;;;;61.70;20.60;;;-0.10;99.90;;;0.25;75.13;98977.72;5069449;28;20265;-40
2022/01/26 06:35:57;;;;;;;53.67;20.33;;;-0.10;99.90;;;0.31;75.11;98969.63;5069770;28;20048;-40
2022/01/26 06:38:28;;;;;;;53.83;19.53;;;0.00;99.90;;;0.39;74.53;98980.63;5069996;28;20062;-40
2022/01/26 06:40:58;;;;;;;55.77;19.60;;;0.10;99.90;;;0.32;75.15;98979.19;5068585;28;20052;-40
2022/01/26 06:43:29;;;;;;;49.50;19.93;;;0.00;99.90;;;0.36;75.02;98983.38;5069123;28;20211;-40
2022/01/26 06:46:04;;;;;;;47.50;20.17;;;0.10;99.90;;;0.28;74.84;98968.91;5068710;28;20044;-39
2022/01/26 06:51:06;;;;;;;51.85;19.58;;;-0.10;99.90;;;0.24;74.47;98983.06;5069457;28;20636;-40
2022/01/26 06:53:34;;;;;;;51.20;21.57;;;-0.10;99.90;;;0.32;74.48;98980.97;5068948;28;20048;-40
2022/01/26 06:56:01;;;;;;;72.13;20.83;;;-0.10;99.90;;;0.30;74.43;98996.75;5051158;28;20068;-39
2022/01/26 06:58:30;;;;;;;51.80;18.47;;;0.00;99.90;;;0.27;74.74;98994.25;5070256;28;20342;-39
2022/01/26 07:00:57;;;;;;;51.53;20.27;;;-0.10;99.90;;;0.26;74.94;98994.31;5068374;28;20056;-39
2022/01/26 07:03:25;;;;;;;54.30;20.27;;;-0.10;99.90;;;0.28;74.47;98990.72;5068967;28;20062;-39
2022/01/26 07:05:53;;;;;;;44.97;17.83;;;-0.10;99.90;;;0.29;74.52;98995.06;5067110;28;20068;-39
2022/01/26 07:08:21;;;;;;;50.23;21.33;;;0.00;99.90;;;0.26;74.19;98992.53;5067489;28;20064;-39
2022/01/26 07:10:51;;;;;;;47.53;20.97;;;0.00;99.90;;;0.25;74.44;99010.94;5069276;28;20044;-40
2022/01/26 07:13:20;;;;;;;47.33;19.60;;;-0.10;99.90;;;0.24;74.47;99006.63;5069926;28;20047;-39
2022/01/26 07:21:26;;;;;;;50.37;19.80;;;-0.20;99.90;;;0.06;75.38;99016.94;5068735;28;20055;-40
2022/01/26 07:23:59;;;;;;;50.15;20.42;;;-0.20;99.90;;;0.13;75.16;99004.44;5067099;28;20052;-40
2022/01/26 07:26:29;;;;;;;49.90;21.57;;;-0.20;99.90;;;0.13;75.46;99010.53;5067443;28;20052;-40
2022/01/26 07:29:10;;;;;;;47.27;19.40;;;-0.20;99.90;;;0.11;75.51;99022.81;5068091;28;20048;-40
2022/01/26 07:31:42;;;;;;;48.43;19.73;;;-0.20;99.90;;;0.09;74.53;99032.50;5052327;28;20052;-40
2022/01/26 07:34:13;;;;;;;48.37;18.40;;;-0.20;99.90;;;0.12;75.41;99036.78;5068626;28;20052;-39
2022/01/26 07:36:42;;;;;;;49.97;18.63;;;-0.20;99.90;;;0.12;75.09;99044.66;5069214;28;20044;-39
2022/01/26 07:39:14;;;;;;;44.97;19.37;;;-0.20;99.90;;;0.18;74.87;99044.41;5067793;28;20377;-40
2022/01/26 07:41:42;;;;;;;41.80;18.50;;;-0.10;99.90;;;0.20;74.85;99039.94;5068161;28;20056;-39
2022/01/26 07:44:10;;;;;;;46.93;19.87;;;-0.10;99.90;;;0.15;75.00;99047.13;5068659;28;20052;-40
2022/01/26 07:46:38;;;;;;;45.70;19.03;;;-0.20;99.90;;;0.11;74.82;99042.94;5069619;28;20048;-39
2022/01/26 07:49:06;;;;;;;45.80;19.63;;;-0.20;99.90;;;0.15;74.61;99034.88;5068221;28;20055;-40
2022/01/26 07:51:34;;;;;;;42.53;19.43;;;-0.10;99.90;;;0.25;75.09;99047.59;5068697;28;20170;-43
2022/01/26 07:54:01;;;;;;;45.73;20.47;;;0.00;99.90;;;0.19;75.10;99052.22;5067149;28;20053;-39
2022/01/26 07:56:29;;;;;;;41.07;18.87;;;-0.10;99.90;;;0.19;74.44;99053.94;5069214;28;20032;-39
2022/01/26 07:58:58;;;;;;;43.03;19.10;;;-0.10;99.90;;;0.27;75.04;99051.03;5067978;28;20237;-39
2022/01/26 08:01:26;;;;;;;42.13;20.20;;;0.00;99.90;;;0.29;74.43;99054.44;5067709;28;20060;-39
2022/01/26 08:03:54;;;;;;;48.50;19.30;;;0.10;99.90;;;0.29;74.35;99062.28;5067715;28;20350;-40
2022/01/26 08:06:22;;;;;;;39.20;18.47;;;0.00;99.90;;;0.29;74.37;99057.91;5067756;28;20056;-39
2022/01/26 08:08:50;;;;;;;56.70;22.40;;;0.00;99.90;;;0.23;74.62;99055.53;5067647;28;20049;-39
2022/01/26 08:11:18;;;;;;;50.40;19.67;;;-0.10;99.90;;;0.08;74.52;99054.41;5067318;28;20040;-40
2022/01/26 08:13:45;;;;;;;50.87;18.07;;;-0.20;99.90;;;-0.06;74.89;99047.09;5068795;28;20055;-39
2022/01/26 08:16:13;;;;;;;46.13;20.03;;;-0.40;99.90;;;-0.02;75.22;99053.91;5066761;28;20356;-39
2022/01/26 08:18:41;;;;;;;46.87;18.47;;;-0.30;99.90;;;-0.08;75.05;99058.50;5067189;28;20052;-39
2022/01/26 08:21:09;;;;;;;68.93;20.00;;;-0.40;99.90;;;-0.29;75.78;99061.06;5067147;28;20354;-39
2022/01/26 08:23:42;;;;;;;55.70;18.97;;;-0.50;99.90;;;-0.22;75.82;99059.06;5068568;28;20070;-39
2022/01/26 08:26:11;;;;;;;48.60;19.47;;;-0.50;99.90;;;-0.16;75.27;99073.69;5066926;28;20066;-39
2022/01/26 08:28:41;;;;;;;67.27;20.13;;;-0.40;99.90;;;-0.17;76.30;99075.44;5068032;28;20361;-40
2022/01/26 08:31:12;;;;;;;61.67;18.13;;;-0.40;99.90;;;-0.14;75.47;99082.31;5065739;28;20059;-39
2022/01/26 08:33:40;;;;;;;47.57;18.00;;;-0.40;99.90;;;-0.03;75.58;99080.16;5066897;28;20056;-39
2022/01/26 08:36:08;;;;;;;50.33;17.67;;;-0.30;99.90;;;0.05;75.26;99085.09;5067925;28;20040;-39
2022/01/26 08:38:37;;;;;;;76.37;22.43;;;-0.20;99.90;;;0.05;75.93;99075.44;5067556;28;20048;-39
2022/01/26 08:41:05;;;;;;;48.63;19.40;;;-0.20;99.90;;;0.10;75.79;99077.91;5067083;28;20060;-39
2022/01/26 08:43:34;;;;;;;41.63;17.03;;;-0.10;99.90;;;0.16;75.23;99085.53;5066814;28;20056;-40
2022/01/26 08:46:01;;;;;;;63.57;17.93;;;-0.10;99.90;;;0.16;75.27;99078.50;5067815;28;20054;-40
2022/01/26 08:48:30;;;;;;;52.50;16.83;;;-0.20;99.90;;;0.10;75.00;99086.63;5066093;28;20087;-39
2022/01/26 08:50:57;;;;;;;47.03;17.07;;;-0.20;99.90;;;0.17;74.88;99084.59;5084849;28;20051;-39
2022/01/26 08:53:25;;;;;;;46.60;17.53;;;-0.10;99.90;;;0.18;75.60;99070.59;5097041;28;20242;-39
2022/01/26 08:55:54;;;;;;;44.73;17.43;;;-0.10;99.90;;;0.15;75.41;99074.16;5078844;28;20044;-39
2022/01/26 08:58:23;;;;;;;44.57;17.30;;;-0.20;99.90;;;0.15;75.35;99082.03;5096546;28;20346;-39
2022/01/26 09:00:51;;;;;;;41.70;17.13;;;-0.20;99.90;;;-0.03;75.50;99090.63;5074585;28;20052;-39
2022/01/26 09:03:20;;;;;;;36.83;15.87;;;-0.30;99.90;;;-0.22;75.45;99087.84;5098005;28;20050;-39
2022/01/26 09:05:49;;;;;;;44.97;16.70;;;-0.50;99.90;;;-0.27;75.02;99095.88;5096381;28;20262;-39
2022/01/26 09:08:19;;;;;;;42.77;17.07;;;-0.50;99.90;;;-0.34;75.29;99098.78;5095663;28;20042;-40
2022/01/26 09:10:47;;;;;;;43.30;17.37;;;-0.60;99.90;;;-0.20;76.24;99102.56;5094906;28;20365;-40
2022/01/26 09:13:17;;;;;;;43.40;18.37;;;-0.40;99.90;;;-0.20;76.22;99109.59;5097534;28;20071;-39
2022/01/26 09:15:45;;;;;;;44.70;18.57;;;-0.40;99.90;;;-0.23;75.37;99105.31;5095276;28;20143;-39
2022/01/26 09:18:18;;;;;;;39.53;18.07;;;-0.40;99.90;;;-0.15;75.90;99083.25;5092508;28;20245;-39
2022/01/26 09:20:46;;;;;;;39.33;16.50;;;-0.40;99.90;;;-0.23;75.98;99088.78;5095438;28;20306;-40
2022/01/26 09:23:13;;;;;;;37.43;15.97;;;-0.40;99.90;;;-0.38;75.74;99095.44;5095614;28;20052;-39
2022/01/26 09:25:41;;;;;;;38.90;17.13;;;-0.60;99.90;;;-0.33;75.74;99093.50;5097115;28;20048;-39
2022/01/26 09:28:09;;;;;;;36.13;16.00;;;-0.60;99.90;;;-0.25;76.08;99088.81;5096481;28;20058;-39
2022/01/26 09:30:37;;;;;;;30.30;15.33;;;-0.50;99.90;;;-0.10;76.30;99092.59;5097036;28;20352;-40
2022/01/26 09:33:04;;;;;;;38.13;16.80;;;-0.30;99.90;;;-0.13;76.31;99092.75;5098046;28;20388;-39
2022/01/26 09:35:32;;;;;;;42.87;15.03;;;-0.30;99.90;;;-0.07;76.41;99078.56;5098656;28;20044;-39
2022/01/26 09:38:00;;;;;;;46.43;18.17;;;-0.20;99.90;;;-0.03;75.98;99077.53;5095814;28;20044;-40
2022/01/26 09:40:28;;;;;;;53.33;16.17;;;-0.30;99.90;;;-0.07;75.71;99068.09;5096479;28;20040;-40
2022/01/26 09:42:57;;;;;;;41.87;17.10;;;-0.30;99.90;;;0.04;76.10;99067.66;5079121;28;20040;-39
2022/01/26 09:45:25;;;;;;;50.20;17.73;;;-0.30;99.90;;;-0.06;75.44;99075.88;5098370;28;20378;-39
2022/01/26 09:47:53;;;;;;;45.77;15.10;;;-0.30;99.90;;;-0.10;76.01;99071.66;5096151;28;20054;-39
2022/01/26 09:50:33;;;;;;;43.83;16.27;;;-0.40;99.90;;;-0.12;76.16;99060.41;5080702;28;20051;-39
2022/01/26 09:53:02;;;;;;;45.90;17.40;;;-0.40;99.90;;;-0.03;76.31;99064.44;5092668;28;20050;-40
2022/01/26 09:55:31;;;;;;;42.63;17.77;;;-0.30;99.90;;;0.11;75.75;99062.13;5093627;28;20326;-39
2022/01/26 09:57:58;;;;;;;38.70;15.53;;;-0.10;99.90;;;0.13;76.22;99064.69;5096129;28;20042;-39
2022/01/26 10:00:28;;;;;;;46.43;17.23;;;0.00;99.90;;;0.24;75.49;99054.63;5094073;28;20055;-40
2022/01/26 10:03:03;;;;;;;44.50;16.43;;;0.10;99.90;;;0.26;75.46;99036.22;5077353;28;20372;-40
2022/01/26 10:05:45;;;;;;;36.07;16.50;;;0.00;99.90;;;0.24;75.07;99044.16;5095087;28;20053;-39
2022/01/26 10:08:49;;;;;;;41.27;16.27;;;0.00;99.90;;;0.17;75.09;99042.69;5096430;28;20040;-39
2022/01/26 10:19:29;;;;;;;41.83;15.57;;;0.10;99.90;;;0.32;75.16;99041.22;5097976;28;20306;-40
2022/01/26 10:21:57;;;;;;;51.40;17.03;;;0.00;99.90;;;0.30;75.22;99041.28;5096508;28;20052;-39
2022/01/26 10:24:28;;;;;;;73.43;17.07;;;0.00;99.90;;;0.34;74.98;99052.47;5094065;28;20044;-40
2022/01/26 10:26:59;;;;;;;45.73;16.53;;;0.10;99.90;;;0.34;75.11;99045.47;5097378;28;20052;-40
2022/01/26 10:29:29;;;;;;;79.47;18.90;;;0.00;99.90;;;0.39;75.22;99025.19;5096728;28;20044;-39
2022/01/26 10:31:58;;;;;;;41.20;16.30;;;0.10;99.90;;;0.47;75.03;99027.47;5096784;28;20044;-40
2022/01/26 10:34:26;;;;;;;61.50;17.70;;;0.20;99.90;;;0.49;75.41;99030.03;5092695;28;20051;-40
2022/01/26 10:37:04;;;;;;;42.30;16.33;;;0.20;99.90;;;0.37;74.90;99047.13;5095785;28;20046;-39
2022/01/26 10:39:43;;;;;;;45.43;17.43;;;0.10;99.90;;;0.18;75.01;99058.34;5094880;28;20326;-40
2022/01/26 10:42:18;;;;;;;81.87;19.37;;;-0.10;99.90;;;0.17;75.46;99068.88;5092981;28;20044;-39
2022/01/26 10:45:06;;;;;;;43.93;16.00;;;-0.10;99.90;;;0.02;75.98;99074.72;5096553;28;20044;-39
2022/01/26 10:47:37;;;;;;;44.73;15.57;;;-0.30;99.90;;;0.02;75.83;99069.47;5093651;28;20071;-39
2022/01/26 10:50:58;;;;;;;43.33;16.23;;;-0.30;99.90;;;-0.03;76.20;99081.00;5094340;28;20048;-40
2022/01/26 10:53:17;;;;;;;66.87;19.40;;;-0.30;99.90;;;0.10;75.88;99091.00;5092166;28;20062;-40
2022/01/26 10:55:45;;;;;;;40.70;16.47;;;-0.10;99.90;;;0.17;75.38;99093.28;5093690;28;20036;-39
2022/01/26 10:58:16;;;;;;;70.13;18.93;;;-0.10;99.90;;;0.19;76.12;99094.13;5075244;28;20345;-39
2022/01/26 11:00:44;;;;;;;60.73;17.73;;;0.00;99.90;;;0.22;75.40;99087.88;5074023;28;20048;-40
2022/01/26 11:03:12;;;;;;;49.63;16.97;;;0.00;99.90;;;0.13;75.28;99091.72;5073678;28;20059;-40
2022/01/26 11:05:40;;;;;;;61.90;18.03;;;-0.10;99.90;;;-0.09;75.53;99096.94;5070152;28;20060;-39
2022/01/26 11:08:11;;;;;;;45.37;13.63;;;-0.30;99.90;;;-0.20;76.48;99089.47;5088005;28;20911;-40
2022/01/26 11:10:39;;;;;;;40.67;16.03;;;-0.40;99.90;;;-0.32;76.89;99091.72;5076875;28;20047;-40
2022/01/26 11:13:08;;;;;;;46.47;16.00;;;-0.60;99.90;;;-0.27;76.00;99102.88;5083131;28;20048;-40
2022/01/26 11:15:36;;;;;;;73.67;22.30;;;-0.50;99.90;;;-0.20;76.09;99106.97;5089053;28;20062;-39
2022/01/26 11:18:10;;;;;;;43.27;17.83;;;-0.50;99.90;;;-0.15;76.71;99088.47;5087080;28;20060;-39
2022/01/26 11:20:54;;;;;;;38.57;16.27;;;-0.40;99.90;;;-0.02;76.06;99079.22;5086366;28;20346;-39
2022/01/26 11:23:40;;;;;;;85.93;22.50;;;-0.20;99.90;;;0.03;76.56;99077.28;5083098;28;20048;-39
2022/01/26 11:26:25;;;;;;;47.17;15.90;;;-0.10;99.90;;;-0.22;76.30;99078.22;5089620;28;20064;-39
2022/01/26 11:28:53;;;;;;;62.53;18.73;;;-0.40;99.90;;;-0.25;75.98;99082.75;5077969;28;20050;-39
2022/01/26 11:31:23;;;;;;;42.07;16.97;;;-0.50;99.90;;;-0.15;76.19;99057.06;5071238;28;20368;-36
2022/01/26 11:34:11;;;;;;;27.03;12.93;;;-0.40;99.90;;;-0.23;75.88;99075.69;5086531;28;20066;-36
2022/01/26 11:36:42;;;;;;;37.63;15.63;;;-0.40;99.90;;;-0.25;76.93;99064.44;5078813;28;20044;-36
2022/01/26 11:45:11;;;;;;;29.55;14.60;;;-0.50;99.90;;;-0.32;76.87;99063.78;5057676;28;20067;-35
2022/01/26 11:48:11;;;;;;;34.67;15.67;;;-0.50;99.90;;;-0.29;76.78;99054.97;5089787;28;20082;-36
2022/01/26 11:50:48;;;;;;;31.03;13.53;;;-0.50;99.90;;;-0.34;76.33;99059.53;5080265;28;20044;-36
2022/01/26 11:53:23;;;;;;;30.53;15.87;;;-0.40;99.90;;;-0.32;76.07;99066.41;5089415;28;20397;-37
2022/01/26 11:56:00;;;;;;;39.33;15.73;;;-0.50;99.90;;;-0.30;76.99;99058.50;5089217;28;20042;-36
2022/01/26 11:58:41;;;;;;;35.70;14.53;;;-0.50;99.90;;;-0.21;76.90;99050.31;5088313;28;20044;-36
2022/01/26 12:01:29;;;;;;;42.60;17.87;;;-0.40;99.90;;;-0.12;75.91;99059.56;5087909;28;20067;-36
2022/01/26 12:04:01;;;;;;;27.33;12.27;;;-0.30;99.90;;;-0.17;76.20;99061.50;5088171;28;20052;-36
2022/01/26 12:06:43;;;;;;;41.07;17.60;;;-0.30;99.90;;;-0.13;76.24;99050.00;5089153;28;20350;-37
2022/01/26 12:09:11;;;;;;;36.90;16.13;;;-0.30;99.90;;;-0.17;76.49;99049.28;5088547;28;20048;-37
2022/01/26 12:11:39;;;;;;;47.63;16.27;;;-0.30;99.90;;;-0.06;76.26;99059.31;5088632;28;20040;-37
2022/01/26 12:14:12;;;;;;;46.77;16.67;;;-0.20;99.90;;;-0.03;76.44;99059.19;5087401;28;20048;-37
2022/01/26 12:16:46;;;;;;;45.23;16.63;;;-0.20;99.90;;;-0.07;76.80;99068.09;5088815;28;20056;-37
2022/01/26 12:36:55;;;;;;;51.57;15.63;;;-0.70;99.90;;;-0.39;77.60;99046.59;5087370;28;20040;-37
2022/01/26 12:39:13;;;;;;;48.07;15.27;;;-0.60;99.90;;;-0.29;77.32;99049.72;5087396;28;20067;-37
2022/01/26 12:41:48;;;;;;;102.90;18.23;;;-0.50;99.90;;;-0.20;76.61;99047.59;5088201;28;20052;-37
2022/01/26 12:44:16;;;;;;;49.90;14.50;;;-0.30;99.90;;;-0.32;76.96;99055.94;5088098;28;20047;-37
2022/01/26 12:46:44;;;;;;;41.83;14.57;;;-0.40;99.90;;;-0.25;77.59;99048.72;5087618;28;20064;-37
2022/01/26 12:49:19;;;;;;;36.50;15.50;;;-0.40;99.90;;;-0.38;77.52;99055.34;5088056;28;20466;-37
2022/01/26 12:51:53;;;;;;;28.03;12.43;;;-0.50;99.90;;;-0.51;77.13;99063.63;5070011;28;20054;-37